Time;durP1;ratioP1;P1;durP2;ratioP2;P2;SDS_P1;SDS_P2;PMS_P1;PMS_P2;Temp;Humidity;BMP_temperature;BMP_pressure;BME280_temperature;BME280_humidity;BME280_pressure;Samples;Min_cycle;Max_cycle;Signal;HPM_P1;HPM_P2
2022/07/08 00:01:54;;;;;;;5.50;1.30;;;;;;;14.80;96.45;103092.25;5011507;28;20049;-29
2022/07/08 00:04:22;;;;;;;4.55;1.00;;;;;;;14.78;96.76;103097.31;5011155;28;20042;-31
2022/07/08 00:06:50;;;;;;;6.38;0.93;;;;;;;14.75;96.87;103097.88;5010918;28;20161;-29
2022/07/08 00:09:18;;;;;;;2.83;0.80;;;;;;;14.74;97.01;103101.78;5010938;28;20133;-29
2022/07/08 00:11:47;;;;;;;3.33;0.60;;;;;;;14.72;97.29;103096.44;5011276;28;20054;-29
2022/07/08 00:14:15;;;;;;;5.75;1.00;;;;;;;14.71;97.39;103094.75;5010210;28;20060;-28
2022/07/08 00:16:43;;;;;;;5.30;0.98;;;;;;;14.71;97.74;103082.66;5011194;28;20084;-29
2022/07/08 00:19:12;;;;;;;5.38;0.82;;;;;;;14.70;97.86;103081.81;5011169;28;20107;-31
2022/07/08 00:21:40;;;;;;;4.35;0.98;;;;;;;14.67;97.90;103087.97;5010601;28;20176;-29
2022/07/08 00:24:08;;;;;;;6.88;0.98;;;;;;;14.65;98.17;103084.59;5010990;28;20042;-29
2022/07/08 00:26:36;;;;;;;6.40;1.05;;;;;;;14.63;98.13;103085.97;5010381;28;20046;-29
2022/07/08 00:29:06;;;;;;;6.20;1.30;;;;;;;14.62;98.52;103090.75;5011209;28;20088;-30
2022/07/08 00:31:34;;;;;;;5.78;1.08;;;;;;;14.59;98.62;103091.28;5013449;28;20419;-28
2022/07/08 00:34:02;;;;;;;5.30;1.02;;;;;;;14.57;99.28;103096.34;5014075;28;20045;-30
2022/07/08 00:36:30;;;;;;;6.28;1.10;;;;;;;14.57;99.44;103095.50;5014407;28;20050;-30
2022/07/08 00:39:00;;;;;;;5.53;1.20;;;;;;;14.57;99.98;103103.94;5014590;28;20042;-29
2022/07/08 00:41:28;;;;;;;3.08;0.85;;;;;;;14.54;99.96;103105.31;5013294;28;20441;-30
2022/07/08 00:43:56;;;;;;;3.63;0.98;;;;;;;14.53;100.00;103106.44;5014700;28;20050;-30
2022/07/08 00:46:26;;;;;;;4.80;1.10;;;;;;;14.52;100.00;103106.72;5014218;28;20057;-29
2022/07/08 00:48:53;;;;;;;6.68;1.20;;;;;;;14.49;100.00;103105.28;5013821;28;20046;-31
2022/07/08 00:51:22;;;;;;;5.15;1.10;;;;;;;14.46;100.00;103098.25;5013893;28;20050;-32
2022/07/08 00:53:52;;;;;;;8.38;1.52;;;;;;;14.45;100.00;103090.94;5014420;28;20060;-29
2022/07/08 00:56:21;;;;;;;2.92;0.80;;;;;;;14.44;100.00;103099.63;5013420;28;20056;-32
2022/07/08 00:58:50;;;;;;;5.40;1.15;;;;;;;14.42;100.00;103094.28;5014527;28;20145;-31
2022/07/08 01:01:19;;;;;;;5.60;0.90;;;;;;;14.42;100.00;103096.25;5013963;28;20415;-32
2022/07/08 01:03:48;;;;;;;7.35;1.50;;;;;;;14.41;100.00;103094.53;5013369;28;20046;-30
2022/07/08 01:06:17;;;;;;;5.53;1.00;;;;;;;14.41;100.00;103091.72;5013676;28;20042;-29
2022/07/08 01:08:46;;;;;;;4.40;0.95;;;;;;;14.38;100.00;103090.31;5013482;28;20052;-31
2022/07/08 01:11:14;;;;;;;4.15;1.00;;;;;;;14.37;100.00;103087.78;5013557;28;20064;-31
2022/07/08 01:13:42;;;;;;;5.72;0.90;;;;;;;14.36;100.00;103086.06;5013874;28;20054;-29
2022/07/08 01:16:10;;;;;;;9.70;1.40;;;;;;;14.33;100.00;103081.84;5012969;28;20407;-29
2022/07/08 01:18:38;;;;;;;5.55;1.05;;;;;;;14.32;100.00;103090.53;5013849;28;20049;-29
2022/07/08 01:21:07;;;;;;;7.07;1.05;;;;;;;14.31;100.00;103094.47;5013393;28;20052;-29
2022/07/08 01:23:35;;;;;;;6.95;1.20;;;;;;;14.30;100.00;103092.75;5013230;28;20057;-29
2022/07/08 01:26:09;;;;;;;5.28;1.13;;;;;;;14.30;100.00;103087.16;5013951;28;20042;-32
2022/07/08 01:28:41;;;;;;;6.88;1.00;;;;;;;14.28;100.00;103079.00;5012558;28;20490;-32
2022/07/08 01:31:09;;;;;;;9.98;2.20;;;;;;;14.27;100.00;103079.25;5011610;28;20073;-29
2022/07/08 01:33:37;;;;;;;5.22;1.20;;;;;;;14.26;100.00;103086.00;5013156;28;20392;-32
2022/07/08 01:36:07;;;;;;;5.90;0.88;;;;;;;14.25;100.00;103087.09;5013621;28;20510;-29
2022/07/08 01:38:36;;;;;;;7.30;1.10;;;;;;;14.24;100.00;103086.25;5012453;28;20049;-30
2022/07/08 01:41:04;;;;;;;5.82;1.10;;;;;;;14.24;100.00;103088.22;5013551;28;20136;-30
2022/07/08 01:43:32;;;;;;;6.07;1.20;;;;;;;14.25;100.00;103089.91;5012267;28;20049;-30
2022/07/08 01:45:59;;;;;;;6.82;1.00;;;;;;;14.24;100.00;103086.25;5012697;28;20387;-29
2022/07/08 01:48:27;;;;;;;6.93;1.20;;;;;;;14.24;100.00;103085.41;5013298;28;20173;-29
2022/07/08 01:50:55;;;;;;;4.85;1.13;;;;;;;14.24;100.00;103080.63;5012408;28;20053;-30
2022/07/08 01:53:25;;;;;;;5.25;0.90;;;;;;;14.25;100.00;103078.66;5013058;28;20132;-30
2022/07/08 01:55:52;;;;;;;6.70;1.30;;;;;;;14.24;100.00;103066.59;5013318;28;20050;-30
2022/07/08 01:58:20;;;;;;;6.32;1.08;;;;;;;14.25;100.00;103078.66;5011914;28;20049;-28
2022/07/08 02:00:48;;;;;;;5.88;1.30;;;;;;;14.25;100.00;103075.88;5013117;28;20107;-31
2022/07/08 02:03:17;;;;;;;5.70;0.90;;;;;;;14.25;100.00;103065.47;5012797;28;20193;-30
2022/07/08 02:05:45;;;;;;;4.32;1.10;;;;;;;14.24;100.00;103069.41;5012419;28;20092;-29
2022/07/08 02:08:12;;;;;;;8.05;1.75;;;;;;;14.25;100.00;103073.91;5012343;28;20052;-29
2022/07/08 02:13:27;;;;;;;7.30;0.90;;;;;;;14.25;100.00;103078.66;5011805;28;20085;-29
2022/07/08 02:15:55;;;;;;;5.68;1.10;;;;;;;14.27;100.00;103084.88;5012965;28;20046;-31
2022/07/08 02:18:23;;;;;;;6.93;1.20;;;;;;;14.26;100.00;103089.63;5012344;28;20487;-30
2022/07/08 02:20:51;;;;;;;5.85;0.93;;;;;;;14.27;100.00;103088.53;5012005;28;20034;-29
2022/07/08 02:23:18;;;;;;;5.90;0.88;;;;;;;14.27;100.00;103084.88;5012396;28;20056;-32
2022/07/08 02:25:47;;;;;;;4.40;0.98;;;;;;;14.31;100.00;103086.03;5012476;28;20057;-29
2022/07/08 02:28:15;;;;;;;5.32;1.00;;;;;;;14.33;100.00;103092.22;5011831;28;20089;-30
2022/07/08 02:30:43;;;;;;;7.00;1.30;;;;;;;14.37;100.00;103093.38;5011200;28;20402;-30
2022/07/08 02:33:11;;;;;;;6.20;1.25;;;;;;;14.41;100.00;103081.34;5011662;28;20389;-32
2022/07/08 02:35:39;;;;;;;7.25;1.27;;;;;;;14.47;100.00;103068.19;5012177;28;20045;-31
2022/07/08 02:38:06;;;;;;;7.07;1.42;;;;;;;14.52;100.00;103073.00;5012020;28;20054;-29
2022/07/08 02:40:34;;;;;;;8.48;1.30;;;;;;;14.56;100.00;103075.00;5011590;28;20407;-32
2022/07/08 02:43:07;;;;;;;7.40;1.10;;;;;;;14.60;100.00;103067.69;5012464;28;20049;-30
2022/07/08 02:45:35;;;;;;;5.70;1.10;;;;;;;14.62;100.00;103067.41;5011920;28;20048;-31
2022/07/08 02:48:03;;;;;;;7.18;1.27;;;;;;;14.67;100.00;103064.66;5011857;28;20050;-30
2022/07/08 02:50:31;;;;;;;6.18;1.10;;;;;;;14.72;100.00;103073.97;5010429;28;20038;-29
2022/07/08 02:52:58;;;;;;;8.00;1.23;;;;;;;14.77;100.00;103070.34;5010446;28;20569;-29
2022/07/08 02:55:26;;;;;;;3.72;1.05;;;;;;;14.82;100.00;103070.34;5008891;28;20060;-29
2022/07/08 02:57:54;;;;;;;6.00;1.65;;;;;;;14.86;100.00;103073.44;5010291;28;20041;-31
2022/07/08 03:00:23;;;;;;;7.60;1.20;;;;;;;14.89;100.00;103067.28;5009825;28;20064;-29
2022/07/08 03:02:51;;;;;;;6.57;1.35;;;;;;;14.91;100.00;103063.06;5010082;28;20054;-30
2022/07/08 03:05:19;;;;;;;3.83;0.90;;;;;;;14.93;100.00;103062.81;5010563;28;20136;-31
2022/07/08 03:07:47;;;;;;;8.75;1.48;;;;;;;14.96;100.00;103068.72;5011667;28;20475;-29
2022/07/08 03:10:14;;;;;;;9.90;1.50;;;;;;;15.01;100.00;103071.53;5010763;28;20141;-29
2022/07/08 03:12:42;;;;;;;7.90;1.25;;;;;;;15.04;100.00;103072.97;5001424;28;20088;-30
2022/07/08 03:15:10;;;;;;;7.45;1.50;;;;;;;15.07;100.00;103069.59;5010653;28;20464;-31
2022/07/08 03:17:39;;;;;;;7.05;1.33;;;;;;;15.10;100.00;103069.06;5005169;28;20053;-30
2022/07/08 03:20:08;;;;;;;6.57;1.65;;;;;;;15.12;100.00;103064.00;5010492;28;20527;-29
2022/07/08 03:22:36;;;;;;;6.30;1.45;;;;;;;15.15;100.00;103060.63;5010647;28;20554;-29
2022/07/08 03:25:04;;;;;;;6.85;1.70;;;;;;;15.17;100.00;103066.84;5010393;28;20049;-31
2022/07/08 03:27:32;;;;;;;7.90;1.52;;;;;;;15.19;100.00;103056.13;5010481;28;20052;-29
2022/07/08 03:29:59;;;;;;;6.30;1.33;;;;;;;15.23;100.00;103071.34;5009367;28;20048;-29
2022/07/08 03:32:28;;;;;;;7.20;1.50;;;;;;;15.26;100.00;103070.78;5011134;28;20054;-31
2022/07/08 03:34:57;;;;;;;4.78;1.23;;;;;;;15.27;100.00;103066.84;5011681;28;20074;-30
2022/07/08 03:37:25;;;;;;;6.30;1.27;;;;;;;15.29;100.00;103070.22;5010722;28;20542;-30
2022/07/08 03:39:54;;;;;;;9.13;1.27;;;;;;;15.31;100.00;103068.00;4992015;28;20137;-31
2022/07/08 03:42:20;;;;;;;5.68;1.30;;;;;;;15.34;100.00;103073.06;5011236;28;20050;-32
2022/07/08 03:44:48;;;;;;;10.38;1.42;;;;;;;15.38;100.00;103077.03;5010955;28;20064;-30
2022/07/08 03:47:16;;;;;;;4.47;1.00;;;;;;;15.40;100.00;103074.75;5011408;28;20054;-32
2022/07/08 03:49:43;;;;;;;9.35;1.40;;;;;;;15.43;100.00;103081.78;5011639;28;20064;-30
2022/07/08 03:52:13;;;;;;;6.82;1.15;;;;;;;15.44;100.00;103070.25;5010167;28;20057;-32
2022/07/08 03:54:40;;;;;;;6.30;1.50;;;;;;;15.46;100.00;103068.03;5011768;28;20057;-31
2022/07/08 03:57:08;;;;;;;4.53;1.08;;;;;;;15.49;100.00;103070.28;5011032;28;20058;-31
2022/07/08 03:59:36;;;;;;;6.25;1.48;;;;;;;15.53;100.00;103067.75;5010995;28;20046;-31
2022/07/08 04:02:04;;;;;;;9.85;1.38;;;;;;;15.54;100.00;103074.22;5011199;28;20046;-32
2022/07/08 04:04:32;;;;;;;5.95;1.40;;;;;;;15.57;100.00;103082.16;5010783;28;20050;-30
2022/07/08 04:07:00;;;;;;;5.35;1.13;;;;;;;15.59;100.00;103077.09;5014371;28;20041;-31
2022/07/08 04:09:29;;;;;;;8.32;1.33;;;;;;;15.63;100.00;103081.00;5015232;28;20052;-30
2022/07/08 04:11:57;;;;;;;5.93;1.92;;;;;;;15.65;100.00;103084.41;5008870;28;20400;-33
2022/07/08 04:14:24;;;;;;;4.93;1.40;;;;;;;15.69;100.00;103085.53;5015573;28;20064;-30
2022/07/08 04:16:52;;;;;;;4.90;1.23;;;;;;;15.71;100.00;103091.75;5014950;28;20048;-30
2022/07/08 04:19:20;;;;;;;3.97;1.00;;;;;;;15.72;100.00;103099.91;5014268;28;20077;-30
2022/07/08 04:21:48;;;;;;;6.57;1.20;;;;;;;15.74;100.00;103096.81;5014636;28;20054;-32
2022/07/08 04:24:15;;;;;;;5.03;1.23;;;;;;;15.76;100.00;103106.66;5014733;28;20046;-31
2022/07/08 04:26:45;;;;;;;7.10;1.10;;;;;;;15.79;100.00;103106.09;5013982;28;20056;-30
2022/07/08 04:29:12;;;;;;;5.10;1.25;;;;;;;15.83;100.00;103103.56;5014651;28;20046;-31
2022/07/08 04:31:40;;;;;;;5.32;1.30;;;;;;;15.87;100.00;103101.88;5014984;28;20084;-29
2022/07/08 04:34:08;;;;;;;5.05;1.15;;;;;;;15.92;100.00;103110.34;5012886;28;20050;-30
2022/07/08 04:36:36;;;;;;;3.78;1.27;;;;;;;15.94;100.00;103107.25;5014792;28;20193;-31
2022/07/08 04:39:04;;;;;;;4.43;1.08;;;;;;;15.97;100.00;103101.91;5014120;28;20502;-31
2022/07/08 04:41:31;;;;;;;5.68;1.58;;;;;;;16.01;100.00;103102.16;5013941;28;20137;-30
2022/07/08 04:44:00;;;;;;;7.50;1.60;;;;;;;16.04;100.00;103102.44;5014057;28;20498;-31
2022/07/08 04:46:28;;;;;;;5.45;1.35;;;;;;;16.10;100.00;103106.97;5014820;28;20496;-30
2022/07/08 04:48:56;;;;;;;5.88;1.30;;;;;;;16.13;100.00;103105.56;5013506;28;20435;-31
2022/07/08 04:51:24;;;;;;;7.45;1.70;;;;;;;16.17;100.00;103113.16;5014328;28;20513;-30
2022/07/08 04:53:56;;;;;;;4.93;1.30;;;;;;;16.18;100.00;103108.38;5013317;28;20710;-29
2022/07/08 04:56:24;;;;;;;6.80;1.50;;;;;;;16.22;100.00;103119.91;5014259;28;20489;-32
2022/07/08 04:58:52;;;;;;;4.97;1.42;;;;;;;16.26;100.00;103110.59;5013756;28;20056;-30
2022/07/08 05:01:21;;;;;;;5.78;1.35;;;;;;;16.33;100.00;103110.34;5002995;28;20073;-30
2022/07/08 05:03:49;;;;;;;4.90;1.42;;;;;;;16.35;100.00;103105.25;5007406;28;20056;-37
2022/07/08 05:06:17;;;;;;;7.75;1.40;;;;;;;16.39;100.00;103106.38;5013847;28;20049;-31
2022/07/08 05:08:44;;;;;;;3.63;1.02;;;;;;;16.43;100.00;103107.50;5012699;28;20068;-32
2022/07/08 05:11:12;;;;;;;6.72;1.40;;;;;;;16.47;100.00;103108.63;5010441;28;20560;-36
2022/07/08 05:13:40;;;;;;;7.68;1.40;;;;;;;16.48;100.00;103097.06;5013424;28;20076;-32
2022/07/08 05:16:08;;;;;;;5.43;1.48;;;;;;;16.52;100.00;103108.63;5012155;28;20487;-32
2022/07/08 05:18:37;;;;;;;7.43;1.30;;;;;;;16.56;100.00;103109.75;5012470;28;20132;-30
2022/07/08 05:21:05;;;;;;;8.80;1.75;;;;;;;16.62;100.00;103119.00;5013045;28;20046;-33
2022/07/08 05:23:33;;;;;;;4.70;1.20;;;;;;;16.66;100.00;103114.53;5013004;28;20455;-28
2022/07/08 05:26:01;;;;;;;5.55;1.20;;;;;;;16.72;100.00;103119.88;5013424;28;20086;-33
2022/07/08 05:28:29;;;;;;;8.43;1.30;;;;;;;16.76;100.00;103114.50;5013585;28;20046;-33
2022/07/08 05:30:57;;;;;;;4.15;0.98;;;;;;;16.80;100.00;103115.59;5012525;28;20053;-35
2022/07/08 05:33:25;;;;;;;4.07;0.98;;;;;;;16.85;100.00;103107.97;5013688;28;20056;-37
2022/07/08 05:35:55;;;;;;;3.83;0.93;;;;;;;16.92;100.00;103109.66;5011635;28;20063;-30
2022/07/08 05:38:22;;;;;;;5.03;1.45;;;;;;;16.98;100.00;103117.00;5013036;28;20054;-34
2022/07/08 05:40:50;;;;;;;4.43;1.13;;;;;;;17.07;100.00;103132.16;5012342;28;20046;-35
2022/07/08 05:43:18;;;;;;;6.32;1.30;;;;;;;17.16;100.00;103120.00;5012762;28;20098;-31
2022/07/08 05:45:46;;;;;;;4.82;1.10;;;;;;;17.24;100.00;103110.09;5012769;28;20064;-34
2022/07/08 05:48:14;;;;;;;6.28;1.15;;;;;;;17.34;100.00;103121.34;5013476;28;20042;-34
2022/07/08 05:50:41;;;;;;;8.25;1.33;;;;;;;17.43;100.00;103130.03;5002338;28;20134;-39
2022/07/08 05:53:10;;;;;;;7.63;1.23;;;;;;;17.52;100.00;103129.13;5003617;28;20052;-30
2022/07/08 05:55:38;;;;;;;6.00;1.08;;;;;;;17.62;100.00;103128.22;5012772;28;20042;-33
2022/07/08 05:58:06;;;;;;;6.00;1.20;;;;;;;17.72;100.00;103130.19;5011804;28;20077;-31
2022/07/08 06:00:34;;;;;;;5.28;1.30;;;;;;;17.81;100.00;103120.78;5012422;28;20046;-33
2022/07/08 06:03:03;;;;;;;4.40;1.10;;;;;;;17.92;100.00;103124.38;5012424;28;20045;-33
2022/07/08 06:05:31;;;;;;;4.57;1.10;;;;;;;18.02;100.00;103117.78;5006126;28;20074;-31
2022/07/08 06:07:59;;;;;;;5.97;1.30;;;;;;;18.08;100.00;103120.28;5012765;28;20060;-30
2022/07/08 06:10:28;;;;;;;6.65;1.42;;;;;;;18.17;100.00;103117.69;5001832;28;20141;-32
2022/07/08 06:12:56;;;;;;;6.18;1.02;;;;;;;18.21;100.00;103127.25;5009590;28;20065;-33
2022/07/08 06:15:24;;;;;;;5.50;1.05;;;;;;;18.24;100.00;103133.16;5012427;28;20049;-35
2022/07/08 06:17:52;;;;;;;5.22;1.25;;;;;;;18.29;100.00;103145.56;5012356;28;20522;-32
2022/07/08 06:20:21;;;;;;;3.30;0.80;;;;;;;18.33;100.00;103141.00;5011867;28;20057;-34
2022/07/08 06:22:50;;;;;;;3.30;1.10;;;;;;;18.43;100.00;103138.06;5011711;28;20096;-37
2022/07/08 06:25:18;;;;;;;4.53;0.98;;;;;;;18.54;100.00;103139.69;5010288;28;20085;-39
2022/07/08 06:27:47;;;;;;;5.35;1.27;;;;;;;18.62;100.00;103141.88;5011424;28;20069;-32
2022/07/08 06:30:15;;;;;;;6.32;1.30;;;;;;;18.72;100.00;103136.13;5011444;28;20403;-31
2022/07/08 06:32:43;;;;;;;6.95;1.17;;;;;;;18.81;100.00;103134.31;5010756;28;20064;-34
2022/07/08 06:35:11;;;;;;;3.65;1.08;;;;;;;18.89;100.00;103141.31;5012264;28;20088;-31
2022/07/08 06:37:39;;;;;;;6.97;1.25;;;;;;;18.99;100.00;103141.19;5011838;28;20121;-32
2022/07/08 06:40:08;;;;;;;2.95;1.13;;;;;;;19.31;100.00;103134.84;5011260;28;20048;-36
2022/07/08 06:42:35;;;;;;;5.13;0.95;;;;;;;19.84;100.00;103131.84;5009997;28;20391;-32
2022/07/08 06:45:10;;;;;;;3.92;1.10;;;;;;;20.24;100.00;103139.69;5010960;28;20104;-32
2022/07/08 06:47:38;;;;;;;5.70;1.30;;;;;;;20.64;100.00;103129.63;5009664;28;20046;-32
2022/07/08 06:50:06;;;;;;;5.63;1.33;;;;;;;21.29;97.90;103134.31;5012067;28;20125;-32
2022/07/08 06:52:34;;;;;;;3.83;1.02;;;;;;;22.01;94.46;103137.22;5012174;28;20080;-39
2022/07/08 06:55:02;;;;;;;2.88;1.10;;;;;;;22.78;91.46;103138.97;5011562;28;20091;-40
2022/07/08 06:57:31;;;;;;;4.85;1.20;;;;;;;23.60;85.68;103133.34;5011912;28;20069;-34
2022/07/08 06:59:58;;;;;;;3.13;1.10;;;;;;;23.88;81.13;103133.06;5012265;28;20132;-34
2022/07/08 07:02:47;;;;;;;7.22;1.40;;;;;;;24.35;79.65;103148.34;5011683;28;20033;-32
2022/07/08 07:05:17;;;;;;;2.63;0.90;;;;;;;24.74;75.04;103138.66;5012046;28;20057;-33
2022/07/08 07:07:45;;;;;;;4.28;0.98;;;;;;;24.78;74.29;103133.94;5011171;28;20415;-37
2022/07/08 07:10:13;;;;;;;4.18;0.93;;;;;;;24.86;73.46;103135.94;5011863;28;20497;-31
2022/07/08 07:12:41;;;;;;;5.97;1.27;;;;;;;24.99;72.98;103146.31;5011930;28;20069;-32
2022/07/08 07:15:09;;;;;;;5.00;0.90;;;;;;;25.42;71.73;103142.41;5010676;28;20491;-31
2022/07/08 07:17:40;;;;;;;4.18;1.00;;;;;;;25.86;68.61;103140.09;5012328;28;20052;-37
2022/07/08 07:20:11;;;;;;;4.13;0.98;;;;;;;26.00;66.71;103137.78;5011038;28;20054;-39
2022/07/08 07:22:39;;;;;;;6.45;1.08;;;;;;;26.40;66.19;103153.25;5011375;28;20410;-32
2022/07/08 07:25:08;;;;;;;3.42;1.00;;;;;;;26.91;63.04;103145.28;5011201;28;20451;-32
2022/07/08 07:27:40;;;;;;;4.32;0.85;;;;;;;27.28;60.02;103156.81;5011662;28;20210;-37
2022/07/08 07:30:09;;;;;;;4.10;1.02;;;;;;;27.41;59.06;103144.13;5007329;28;20046;-37
2022/07/08 07:32:37;;;;;;;3.28;0.90;;;;;;;27.75;58.59;103149.38;5011746;28;20089;-33
2022/07/08 07:35:05;;;;;;;3.47;0.80;;;;;;;28.24;55.80;103146.38;5011571;28;20057;-31
2022/07/08 07:37:37;;;;;;;3.15;0.90;;;;;;;28.70;54.03;103147.69;5010848;28;20046;-40
2022/07/08 07:40:06;;;;;;;2.50;0.80;;;;;;;29.07;52.46;103145.41;5010914;28;20046;-35
2022/07/08 07:42:34;;;;;;;3.50;1.20;;;;;;;29.30;50.05;103150.50;5015262;28;20378;-32
2022/07/08 07:45:03;;;;;;;3.70;0.90;;;;;;;29.59;48.22;103146.28;5015122;28;20116;-31
2022/07/08 07:47:31;;;;;;;3.05;0.90;;;;;;;29.57;47.20;103140.94;5015480;28;20049;-41
2022/07/08 07:49:59;;;;;;;2.30;0.80;;;;;;;29.61;48.15;103138.94;5014232;28;20069;-39
2022/07/08 07:52:27;;;;;;;3.72;0.82;;;;;;;29.82;45.99;103144.34;5014506;28;20141;-31
2022/07/08 07:54:56;;;;;;;3.90;0.90;;;;;;;29.77;46.08;103136.88;5014792;28;20128;-31
2022/07/08 07:57:32;;;;;;;2.53;0.90;;;;;;;29.95;44.91;103136.44;5015108;28;20108;-30
2022/07/08 08:00:00;;;;;;;4.82;1.00;;;;;;;30.05;45.28;103130.09;5014412;28;20053;-30
2022/07/08 08:02:38;;;;;;;3.80;1.20;;;;;;;30.09;44.53;103131.00;5015241;28;20053;-31
2022/07/08 08:05:06;;;;;;;4.25;0.80;;;;;;;29.88;44.19;103134.22;5014030;28;20104;-35
2022/07/08 08:07:34;;;;;;;3.30;0.90;;;;;;;29.58;45.35;103128.19;5015611;28;20168;-30
2022/07/08 08:10:04;;;;;;;2.92;0.85;;;;;;;29.43;44.77;103132.78;5014983;28;20096;-37
2022/07/08 08:12:32;;;;;;;3.17;0.90;;;;;;;29.21;45.87;103130.53;5015027;28;20070;-31
2022/07/08 08:14:59;;;;;;;3.33;0.82;;;;;;;29.39;45.79;103142.47;5013235;28;20042;-31
2022/07/08 08:17:27;;;;;;;5.88;1.15;;;;;;;29.39;46.23;103137.59;5015039;28;20128;-39
2022/07/08 08:19:56;;;;;;;4.10;1.00;;;;;;;29.60;44.76;103134.41;5013809;28;20053;-32
2022/07/08 08:22:25;;;;;;;3.58;1.10;;;;;;;29.29;45.12;103128.69;5012467;28;20132;-33
2022/07/08 08:24:53;;;;;;;4.25;1.15;;;;;;;29.20;46.04;103131.75;5013976;28;20057;-41
2022/07/08 08:27:22;;;;;;;6.15;1.38;;;;;;;29.45;45.81;103132.41;5013892;28;20129;-32
2022/07/08 08:29:50;;;;;;;3.90;1.10;;;;;;;29.66;45.26;103130.03;5014763;28;20137;-42
2022/07/08 08:32:18;;;;;;;5.50;1.20;;;;;;;29.37;45.46;103136.31;5013627;28;20053;-40
2022/07/08 08:34:46;;;;;;;4.60;1.10;;;;;;;28.96;46.75;103140.59;5015041;28;20472;-39
2022/07/08 08:37:14;;;;;;;5.82;1.55;;;;;;;28.67;47.51;103139.78;5013857;28;20547;-37
2022/07/08 08:39:42;;;;;;;4.70;1.23;;;;;;;28.62;48.79;103142.09;5014219;28;20583;-32
2022/07/08 08:42:10;;;;;;;4.15;1.42;;;;;;;28.88;49.25;103145.31;5014061;28;20512;-32
2022/07/08 08:44:39;;;;;;;4.90;1.30;;;;;;;29.22;48.13;103145.75;5018849;28;20148;-32
2022/07/08 08:47:08;;;;;;;5.63;1.52;;;;;;;29.30;47.23;103145.56;5013226;28;20135;-37
2022/07/08 08:49:36;;;;;;;5.13;1.35;;;;;;;29.16;47.35;103145.22;5014757;28;20145;-30
2022/07/08 08:52:04;;;;;;;8.02;1.67;;;;;;;29.03;48.10;103147.34;5013856;28;20495;-32
2022/07/08 08:54:35;;;;;;;4.38;1.30;;;;;;;28.85;47.89;103145.22;5013726;28;20487;-32
2022/07/08 08:57:05;;;;;;;7.15;1.40;;;;;;;28.42;48.97;103138.25;5013366;28;20060;-33
2022/07/08 08:59:34;;;;;;;8.52;1.83;;;;;;;28.11;50.56;103148.44;5014301;28;20061;-32
2022/07/08 09:02:03;;;;;;;5.40;1.50;;;;;;;28.17;50.80;103137.53;5013175;28;20042;-39
2022/07/08 09:04:32;;;;;;;7.18;1.30;;;;;;;28.26;50.91;103146.84;5013452;28;20212;-33
2022/07/08 09:06:59;;;;;;;7.10;1.50;;;;;;;28.18;51.04;103135.50;5013117;28;20046;-33
2022/07/08 09:09:32;;;;;;;4.75;1.40;;;;;;;28.20;50.57;103133.94;5014321;28;20112;-33
2022/07/08 09:12:17;;;;;;;6.15;1.42;;;;;;;28.37;49.67;103135.69;5013307;28;20041;-31
2022/07/08 09:14:50;;;;;;;4.88;1.30;;;;;;;28.63;51.56;103143.75;5002776;28;20068;-40
2022/07/08 09:17:20;;;;;;;5.47;1.35;;;;;;;28.79;50.09;103147.50;5013484;28;20440;-30
2022/07/08 09:19:49;;;;;;;10.30;1.80;;;;;;;29.03;49.86;103146.50;5013911;28;20084;-40
2022/07/08 09:22:21;;;;;;;8.57;1.70;;;;;;;29.13;48.99;103154.59;5012897;28;20037;-38
2022/07/08 09:24:49;;;;;;;4.82;1.50;;;;;;;29.14;49.01;103148.47;5014171;28;20054;-39
2022/07/08 09:27:17;;;;;;;4.82;1.48;;;;;;;29.13;48.73;103155.44;5013245;28;20493;-32
2022/07/08 09:29:57;;;;;;;5.65;1.33;;;;;;;29.18;48.74;103156.38;5012738;28;20069;-31
2022/07/08 09:32:27;;;;;;;5.87;1.50;;;;;;;29.11;49.86;103152.09;5013416;28;20045;-28
2022/07/08 09:34:54;;;;;;;7.28;1.38;;;;;;;29.05;50.50;103149.84;5013311;28;20304;-31
2022/07/08 09:37:22;;;;;;;7.53;1.63;;;;;;;29.08;50.69;103149.94;5013358;28;20133;-31
2022/07/08 09:39:50;;;;;;;7.32;1.27;;;;;;;29.07;51.35;103141.69;5013190;28;20073;-34
2022/07/08 09:42:18;;;;;;;9.68;2.17;;;;;;;28.97;49.45;103153.78;5012575;28;20046;-35
2022/07/08 09:44:51;;;;;;;6.68;1.80;;;;;;;28.73;50.33;103146.13;5013097;28;20046;-29
2022/07/08 09:47:19;;;;;;;10.95;2.05;;;;;;;28.68;50.53;103147.22;5013336;28;20136;-29
2022/07/08 09:49:48;;;;;;;8.18;1.50;;;;;;;28.73;50.84;103143.25;5012509;28;20049;-33
2022/07/08 09:52:23;;;;;;;5.75;1.45;;;;;;;28.85;51.58;103145.22;5013369;28;20058;-33
2022/07/08 09:55:01;;;;;;;7.90;1.60;;;;;;;28.76;51.96;103143.34;5011983;28;20081;-29
2022/07/08 09:57:29;;;;;;;7.65;1.80;;;;;;;29.00;50.66;103135.75;4992831;28;20137;-30
2022/07/08 09:59:57;;;;;;;7.78;1.75;;;;;;;29.16;51.48;103144.41;5011597;28;20053;-37
2022/07/08 10:02:28;;;;;;;6.68;1.42;;;;;;;29.29;50.83;103140.19;5013038;28;20056;-34
2022/07/08 10:04:59;;;;;;;5.35;1.50;;;;;;;29.50;50.24;103151.44;5011515;28;20451;-33
2022/07/08 10:07:27;;;;;;;6.60;1.58;;;;;;;29.74;49.60;103139.66;5012864;28;20137;-30
2022/07/08 10:09:55;;;;;;;6.65;1.80;;;;;;;30.02;48.95;103146.06;5012190;28;20042;-32
2022/07/08 10:12:23;;;;;;;5.63;1.70;;;;;;;30.12;49.12;103148.38;5011772;28;20050;-32
2022/07/08 10:14:53;;;;;;;5.53;1.77;;;;;;;30.34;48.41;103145.94;5012139;28;20144;-41
2022/07/08 10:17:23;;;;;;;7.68;1.90;;;;;;;30.32;47.91;103146.31;5011715;28;20525;-36
2022/07/08 10:19:52;;;;;;;6.90;1.98;;;;;;;30.17;48.54;103153.00;5012428;28;20212;-31
2022/07/08 10:22:22;;;;;;;5.82;1.60;;;;;;;30.18;48.08;103151.75;5012575;28;20147;-32
2022/07/08 10:24:51;;;;;;;9.30;2.03;;;;;;;29.89;47.64;103156.03;5011250;28;20056;-32
2022/07/08 10:27:24;;;;;;;6.50;1.60;;;;;;;29.46;49.01;103149.28;5012634;28;20060;-34
2022/07/08 10:29:52;;;;;;;4.72;1.27;;;;;;;29.24;49.78;103146.22;5012205;28;20104;-35
2022/07/08 10:32:24;;;;;;;9.45;2.17;;;;;;;28.96;51.03;103150.06;5001136;28;20045;-40
2022/07/08 10:35:09;;;;;;;15.48;3.30;;;;;;;29.09;50.41;103150.78;5011853;28;20514;-32
2022/07/08 10:37:59;;;;;;;10.55;1.75;;;;;;;29.31;51.72;103140.66;5002218;28;20129;-33
2022/07/08 10:40:48;;;;;;;9.15;2.28;;;;;;;29.45;50.06;103152.53;5011227;28;20054;-33
2022/07/08 10:43:23;;;;;;;6.72;1.65;;;;;;;29.29;51.26;103160.34;5012260;28;20054;-35
2022/07/08 10:46:04;;;;;;;5.57;1.70;;;;;;;29.22;51.16;103149.47;5011534;28;20410;-31
2022/07/08 10:48:55;;;;;;;6.63;2.03;;;;;;;28.88;51.43;103138.72;5012463;28;20061;-31
2022/07/08 10:51:47;;;;;;;;;;;;;;;28.65;51.36;103142.19;5006250;28;20145;-36
2022/07/08 10:54:32;;;;;;;5.18;1.55;;;;;;;28.74;52.63;103153.53;4996761;28;20000;-31
2022/07/08 10:57:02;;;;;;;7.15;1.65;;;;;;;28.86;52.28;103161.25;5008264;28;20050;-33
2022/07/08 10:59:31;;;;;;;8.20;2.00;;;;;;;28.68;52.63;103158.72;5010627;28;20064;-31
2022/07/08 11:02:03;;;;;;;7.63;1.90;;;;;;;28.47;54.10;103158.09;5011325;28;20088;-35
2022/07/08 11:04:43;;;;;;;8.15;2.20;;;;;;;28.34;54.70;103162.25;5011312;28;20048;-35
2022/07/08 11:07:29;;;;;;;6.60;1.60;;;;;;;28.57;53.70;103162.50;5010537;28;20163;-39
2022/07/08 11:10:05;;;;;;;7.20;1.40;;;;;;;28.70;53.89;103158.34;4989977;28;20056;-30
2022/07/08 11:12:34;;;;;;;7.88;1.90;;;;;;;28.83;52.40;103162.81;5007586;28;20141;-34
2022/07/08 11:15:06;;;;;;;7.20;1.98;;;;;;;28.61;52.41;103163.41;4989905;28;20054;-31
2022/07/08 11:17:37;;;;;;;6.18;1.67;;;;;;;28.42;52.88;103167.81;5009070;28;20053;-31
2022/07/08 11:20:07;;;;;;;8.73;1.98;;;;;;;28.25;52.79;103150.91;5011073;28;20056;-32
2022/07/08 11:22:37;;;;;;;5.57;1.55;;;;;;;28.11;53.51;103150.47;5011055;28;20050;-32
2022/07/08 11:25:09;;;;;;;5.30;1.43;;;;;;;28.17;53.69;103151.88;5011896;28;20503;-34
2022/07/08 11:27:37;;;;;;;8.05;1.98;;;;;;;28.22;53.26;103151.63;5020467;28;20490;-34
2022/07/08 11:30:08;;;;;;;6.53;1.88;;;;;;;28.21;53.58;103155.69;5011779;28;20054;-33
2022/07/08 11:32:36;;;;;;;6.95;1.80;;;;;;;28.17;53.80;103154.75;5011391;28;20146;-39
2022/07/08 11:35:04;;;;;;;7.22;1.98;;;;;;;28.30;53.09;103144.91;5010649;28;20050;-34